WMT2047 LROP-LIBD
Flight info
| Callsign | WMT2047 |
|---|---|
| Flight time | 1h 34m |
| Altitude | 36000 |
| Route | POLUN DCT ANASA DCT RAMAP DCT POD DCT PINUK DCT CRAYE/N0448F370 DCT ENOXA |
| Aircraft | A321/M-SDE1E2E3FGIJ1J4RWXY/LB1 |
Departure
| Time | 2026-04-22 08:29 |
|---|---|
| Airport | Bucharest Henri Coandă International Airport (LROP) |
Arrival
| Time | 2026-04-22 10:04 |
|---|---|
| Airport | Bari Karol Wojtyła International Airport (LIBD) |
| Time | Latitude | Longitude | Altitude | Speed | Heading |
|---|---|---|---|---|---|
| 2026-04-22 08:03 | 44.56918 | 26.09169 | 307 ft | 0 kts | 174° |
| 2026-04-22 08:20 | 44.56926 | 26.09168 | 308 ft | 2 kts | 174° |
| 2026-04-22 08:20 | 44.56941 | 26.09166 | 308 ft | 2 kts | 174° |
| 2026-04-22 08:20 | 44.56956 | 26.09168 | 308 ft | 2 kts | 209° |
| 2026-04-22 08:20 | 44.56967 | 26.09182 | 308 ft | 2 kts | 240° |
| 2026-04-22 08:21 | 44.56971 | 26.09195 | 308 ft | 0 kts | 261° |
| 2026-04-22 08:21 | 44.56971 | 26.09205 | 308 ft | 0 kts | 264° |
| 2026-04-22 08:21 | 44.56971 | 26.09206 | 308 ft | 0 kts | 264° |
| 2026-04-22 08:24 | 44.56971 | 26.09203 | 308 ft | 1 kts | 264° |
| 2026-04-22 08:24 | 44.56969 | 26.09175 | 307 ft | 3 kts | 264° |
| 2026-04-22 08:25 | 44.56963 | 26.09103 | 307 ft | 13 kts | 263° |
| 2026-04-22 08:25 | 44.56952 | 26.08948 | 307 ft | 16 kts | 263° |
| 2026-04-22 08:25 | 44.56939 | 26.08784 | 306 ft | 17 kts | 264° |
| 2026-04-22 08:25 | 44.56929 | 26.08654 | 308 ft | 11 kts | 264° |
| 2026-04-22 08:26 | 44.56946 | 26.08558 | 310 ft | 10 kts | 321° |
| 2026-04-22 08:26 | 44.57016 | 26.08536 | 310 ft | 10 kts | 354° |
| 2026-04-22 08:26 | 44.57088 | 26.08526 | 312 ft | 10 kts | 354° |
| 2026-04-22 08:26 | 44.57156 | 26.08516 | 314 ft | 10 kts | 354° |
| 2026-04-22 08:27 | 44.57269 | 26.08500 | 314 ft | 19 kts | 354° |
| 2026-04-22 08:27 | 44.57405 | 26.08478 | 314 ft | 19 kts | 352° |
| 2026-04-22 08:27 | 44.57507 | 26.08463 | 314 ft | 5 kts | 354° |
| 2026-04-22 08:27 | 44.57530 | 26.08460 | 314 ft | 2 kts | 354° |
| 2026-04-22 08:28 | 44.57555 | 26.08456 | 314 ft | 5 kts | 354° |
| 2026-04-22 08:28 | 44.57610 | 26.08449 | 314 ft | 9 kts | 355° |
| 2026-04-22 08:28 | 44.57668 | 26.08488 | 314 ft | 10 kts | 71° |
| 2026-04-22 08:28 | 44.57682 | 26.08677 | 314 ft | 46 kts | 84° |
| 2026-04-22 08:29 | 44.57742 | 26.09474 | 314 ft | 114 kts | 84° |
| 2026-04-22 08:29 | 44.57846 | 26.10860 | 353 ft | 165 kts | 84° |
| 2026-04-22 08:29 | 44.57970 | 26.12449 | 931 ft | 168 kts | 83° |
| 2026-04-22 08:29 | 44.58090 | 26.14063 | 1630 ft | 168 kts | 85° |
| 2026-04-22 08:30 | 44.58213 | 26.15674 | 2207 ft | 168 kts | 84° |
| 2026-04-22 08:30 | 44.58356 | 26.17344 | 2477 ft | 180 kts | 83° |
| 2026-04-22 08:30 | 44.58509 | 26.19149 | 2756 ft | 194 kts | 83° |
| 2026-04-22 08:30 | 44.58667 | 26.21085 | 3043 ft | 208 kts | 83° |
| 2026-04-22 08:31 | 44.58836 | 26.23187 | 3280 ft | 227 kts | 83° |
| 2026-04-22 08:31 | 44.59016 | 26.25466 | 3654 ft | 241 kts | 83° |
| 2026-04-22 08:31 | 44.58106 | 26.29716 | 5012 ft | 244 kts | 143° |
| 2026-04-22 08:32 | 44.56540 | 26.30628 | 5661 ft | 249 kts | 173° |
| 2026-04-22 08:32 | 44.54822 | 26.30384 | 6281 ft | 254 kts | 201° |
| 2026-04-22 08:32 | 44.53382 | 26.29003 | 6950 ft | 255 kts | 230° |
| 2026-04-22 08:32 | 44.52333 | 26.27054 | 7680 ft | 256 kts | 235° |
| 2026-04-22 08:33 | 44.51267 | 26.25032 | 8434 ft | 257 kts | 235° |
| 2026-04-22 08:33 | 44.50206 | 26.23056 | 9170 ft | 259 kts | 234° |
| 2026-04-22 08:33 | 44.49119 | 26.21058 | 9895 ft | 260 kts | 234° |
| 2026-04-22 08:33 | 44.48031 | 26.19048 | 10586 ft | 261 kts | 238° |
| 2026-04-22 08:34 | 44.47371 | 26.16695 | 11081 ft | 265 kts | 264° |
| 2026-04-22 08:34 | 44.47301 | 26.14083 | 11403 ft | 280 kts | 271° |
| 2026-04-22 08:34 | 44.47332 | 26.11275 | 11709 ft | 296 kts | 271° |
| 2026-04-22 08:34 | 44.47339 | 26.08322 | 12081 ft | 308 kts | 271° |
| 2026-04-22 08:35 | 44.47310 | 26.05330 | 12731 ft | 311 kts | 270° |
| 2026-04-22 08:35 | 44.47256 | 26.02321 | 13458 ft | 311 kts | 269° |
| 2026-04-22 08:35 | 44.47185 | 25.99324 | 14152 ft | 312 kts | 269° |
| 2026-04-22 08:35 | 44.47102 | 25.96280 | 14800 ft | 314 kts | 269° |
| 2026-04-22 08:36 | 44.47013 | 25.93241 | 15406 ft | 316 kts | 269° |
| 2026-04-22 08:36 | 44.46919 | 25.90167 | 16011 ft | 319 kts | 269° |
| 2026-04-22 08:36 | 44.46822 | 25.87083 | 16599 ft | 321 kts | 269° |
| 2026-04-22 08:36 | 44.46722 | 25.83936 | 17157 ft | 325 kts | 269° |
| 2026-04-22 08:37 | 44.46619 | 25.80769 | 17700 ft | 328 kts | 269° |
| 2026-04-22 08:37 | 44.46513 | 25.77594 | 18243 ft | 331 kts | 269° |
| 2026-04-22 08:37 | 44.46406 | 25.74372 | 18796 ft | 333 kts | 269° |
| 2026-04-22 08:37 | 44.46298 | 25.71152 | 19322 ft | 336 kts | 269° |
| 2026-04-22 08:38 | 44.46186 | 25.67851 | 19856 ft | 338 kts | 269° |
| 2026-04-22 08:38 | 44.46073 | 25.64575 | 20374 ft | 341 kts | 269° |
| 2026-04-22 08:38 | 44.45959 | 25.61262 | 20879 ft | 343 kts | 269° |
| 2026-04-22 08:38 | 44.45842 | 25.57929 | 21390 ft | 345 kts | 269° |
| 2026-04-22 08:39 | 44.45724 | 25.54581 | 21881 ft | 347 kts | 269° |
| 2026-04-22 08:39 | 44.45605 | 25.51214 | 22348 ft | 349 kts | 269° |
| 2026-04-22 08:39 | 44.45483 | 25.47834 | 22800 ft | 351 kts | 269° |
| 2026-04-22 08:39 | 44.45362 | 25.44459 | 23245 ft | 353 kts | 269° |
| 2026-04-22 08:40 | 44.45236 | 25.41010 | 23695 ft | 355 kts | 269° |
| 2026-04-22 08:40 | 44.45109 | 25.37567 | 24118 ft | 357 kts | 269° |
| 2026-04-22 08:40 | 44.44982 | 25.34114 | 24526 ft | 360 kts | 268° |
| 2026-04-22 08:40 | 44.44850 | 25.30591 | 24900 ft | 362 kts | 268° |
| 2026-04-22 08:41 | 44.44716 | 25.27048 | 25286 ft | 364 kts | 268° |
| 2026-04-22 08:41 | 44.44582 | 25.23518 | 25680 ft | 366 kts | 268° |
| 2026-04-22 08:41 | 44.44447 | 25.19989 | 26039 ft | 368 kts | 268° |
| 2026-04-22 08:41 | 44.44309 | 25.16394 | 26398 ft | 370 kts | 268° |
| 2026-04-22 08:42 | 44.44170 | 25.12823 | 26713 ft | 372 kts | 268° |
| 2026-04-22 08:42 | 44.44028 | 25.09214 | 27038 ft | 375 kts | 268° |
| 2026-04-22 08:42 | 44.43882 | 25.05544 | 27368 ft | 376 kts | 268° |
| 2026-04-22 08:42 | 44.43737 | 25.01922 | 27691 ft | 378 kts | 268° |
| 2026-04-22 08:43 | 44.43589 | 24.98220 | 27994 ft | 380 kts | 268° |
| 2026-04-22 08:43 | 44.43441 | 24.94553 | 28313 ft | 382 kts | 268° |
| 2026-04-22 08:43 | 44.43290 | 24.90859 | 28610 ft | 383 kts | 268° |
| 2026-04-22 08:43 | 44.43136 | 24.87113 | 28897 ft | 385 kts | 268° |
| 2026-04-22 08:44 | 44.42982 | 24.83393 | 29182 ft | 387 kts | 268° |
| 2026-04-22 08:44 | 44.42823 | 24.79598 | 29457 ft | 389 kts | 268° |
| 2026-04-22 08:44 | 44.42664 | 24.75832 | 29732 ft | 390 kts | 268° |
| 2026-04-22 08:44 | 44.42503 | 24.72050 | 29997 ft | 392 kts | 268° |
| 2026-04-22 08:45 | 44.42341 | 24.68246 | 30273 ft | 393 kts | 268° |
| 2026-04-22 08:45 | 44.42176 | 24.64444 | 30547 ft | 394 kts | 268° |
| 2026-04-22 08:45 | 44.42010 | 24.60620 | 30782 ft | 396 kts | 268° |
| 2026-04-22 08:45 | 44.41842 | 24.56785 | 30994 ft | 397 kts | 268° |
| 2026-04-22 08:46 | 44.41672 | 24.52942 | 31183 ft | 398 kts | 268° |
| 2026-04-22 08:46 | 44.41502 | 24.49094 | 31363 ft | 400 kts | 268° |
| 2026-04-22 08:46 | 44.41328 | 24.45209 | 31533 ft | 401 kts | 268° |
| 2026-04-22 08:46 | 44.41154 | 24.41367 | 31711 ft | 402 kts | 268° |
| 2026-04-22 08:47 | 44.40977 | 24.37466 | 31870 ft | 404 kts | 268° |
| 2026-04-22 08:47 | 44.40795 | 24.33509 | 32027 ft | 406 kts | 268° |
| 2026-04-22 08:47 | 44.40613 | 24.29583 | 32207 ft | 406 kts | 268° |
| 2026-04-22 08:47 | 44.40431 | 24.25659 | 32433 ft | 406 kts | 268° |
| 2026-04-22 08:48 | 44.40249 | 24.21795 | 32658 ft | 405 kts | 268° |
| 2026-04-22 08:48 | 44.40062 | 24.17836 | 32848 ft | 405 kts | 267° |
| 2026-04-22 08:48 | 44.39878 | 24.13971 | 33034 ft | 405 kts | 267° |
| 2026-04-22 08:48 | 44.39690 | 24.10059 | 33240 ft | 404 kts | 268° |
| 2026-04-22 08:49 | 44.39498 | 24.06109 | 33437 ft | 404 kts | 268° |
| 2026-04-22 08:49 | 44.39309 | 24.02225 | 33641 ft | 404 kts | 268° |
| 2026-04-22 08:49 | 44.39119 | 23.98331 | 33841 ft | 403 kts | 268° |
| 2026-04-22 08:49 | 44.38927 | 23.94452 | 34061 ft | 403 kts | 268° |
| 2026-04-22 08:50 | 44.38734 | 23.90565 | 34278 ft | 403 kts | 268° |
| 2026-04-22 08:50 | 44.38540 | 23.86685 | 34467 ft | 403 kts | 268° |
| 2026-04-22 08:50 | 44.38342 | 23.82748 | 34624 ft | 404 kts | 268° |
| 2026-04-22 08:50 | 44.38145 | 23.78852 | 34787 ft | 405 kts | 268° |
| 2026-04-22 08:51 | 44.37946 | 23.74944 | 34948 ft | 406 kts | 268° |
| 2026-04-22 08:51 | 44.37742 | 23.70995 | 35112 ft | 407 kts | 268° |
| 2026-04-22 08:51 | 44.37540 | 23.67099 | 35268 ft | 407 kts | 268° |
| 2026-04-22 08:51 | 44.37334 | 23.63138 | 35414 ft | 408 kts | 268° |
| 2026-04-22 08:52 | 44.37126 | 23.59176 | 35549 ft | 409 kts | 268° |
| 2026-04-22 08:52 | 44.36920 | 23.55267 | 35685 ft | 410 kts | 268° |
| 2026-04-22 08:52 | 44.36709 | 23.51299 | 35835 ft | 411 kts | 268° |
| 2026-04-22 08:52 | 44.36497 | 23.47334 | 35973 ft | 411 kts | 268° |
| 2026-04-22 08:53 | 44.36283 | 23.43363 | 36063 ft | 413 kts | 268° |
| 2026-04-22 08:53 | 44.35849 | 23.35366 | 36067 ft | 413 kts | 268° |
| 2026-04-22 08:54 | 44.35410 | 23.27399 | 36065 ft | 414 kts | 267° |
| 2026-04-22 08:54 | 44.34965 | 23.19432 | 36061 ft | 413 kts | 267° |
| 2026-04-22 08:55 | 44.34514 | 23.11462 | 36056 ft | 413 kts | 267° |
| 2026-04-22 08:55 | 44.34056 | 23.03451 | 36053 ft | 414 kts | 267° |
| 2026-04-22 08:56 | 44.33594 | 22.95480 | 36052 ft | 414 kts | 267° |
| 2026-04-22 08:56 | 44.33125 | 22.87497 | 36054 ft | 414 kts | 267° |
| 2026-04-22 08:57 | 44.32652 | 22.79546 | 36055 ft | 414 kts | 267° |
| 2026-04-22 08:57 | 44.32171 | 22.71570 | 36055 ft | 413 kts | 267° |
| 2026-04-22 08:58 | 44.31460 | 22.63627 | 36051 ft | 414 kts | 261° |
| 2026-04-22 08:58 | 44.29854 | 22.55904 | 36056 ft | 417 kts | 252° |
| 2026-04-22 08:59 | 44.27331 | 22.48590 | 36055 ft | 422 kts | 243° |
| 2026-04-22 08:59 | 44.24020 | 22.41835 | 36054 ft | 424 kts | 238° |
| 2026-04-22 09:00 | 44.20547 | 22.35213 | 36051 ft | 423 kts | 238° |
| 2026-04-22 09:00 | 44.17078 | 22.28620 | 36049 ft | 423 kts | 238° |
| 2026-04-22 09:01 | 44.13611 | 22.22044 | 36048 ft | 422 kts | 238° |
| 2026-04-22 09:01 | 44.10144 | 22.15480 | 36048 ft | 422 kts | 238° |
| 2026-04-22 09:02 | 44.06672 | 22.08925 | 36051 ft | 422 kts | 238° |
| 2026-04-22 09:02 | 44.03199 | 22.02381 | 36058 ft | 421 kts | 238° |
| 2026-04-22 09:03 | 43.99756 | 21.95901 | 36064 ft | 419 kts | 238° |
| 2026-04-22 09:03 | 43.96291 | 21.89403 | 36068 ft | 418 kts | 238° |
| 2026-04-22 09:04 | 43.92831 | 21.82923 | 36059 ft | 418 kts | 238° |
| 2026-04-22 09:04 | 43.89385 | 21.76487 | 36058 ft | 417 kts | 238° |
| 2026-04-22 09:05 | 43.85933 | 21.70051 | 36055 ft | 417 kts | 238° |
| 2026-04-22 09:05 | 43.82471 | 21.63611 | 36071 ft | 417 kts | 238° |
| 2026-04-22 09:06 | 43.79008 | 21.57183 | 36079 ft | 417 kts | 238° |
| 2026-04-22 09:06 | 43.75565 | 21.50811 | 36086 ft | 417 kts | 238° |
| 2026-04-22 09:07 | 43.72082 | 21.44378 | 36090 ft | 418 kts | 238° |
| 2026-04-22 09:07 | 43.68615 | 21.37981 | 36097 ft | 418 kts | 238° |
| 2026-04-22 09:08 | 43.65126 | 21.31563 | 36102 ft | 418 kts | 238° |
| 2026-04-22 09:08 | 43.61650 | 21.25186 | 36096 ft | 417 kts | 238° |
| 2026-04-22 09:09 | 43.58165 | 21.18802 | 36108 ft | 416 kts | 238° |
| 2026-04-22 09:09 | 43.54686 | 21.12443 | 36099 ft | 416 kts | 238° |
| 2026-04-22 09:10 | 43.51226 | 21.06138 | 36099 ft | 417 kts | 238° |
| 2026-04-22 09:10 | 43.47734 | 20.99783 | 36091 ft | 415 kts | 238° |
| 2026-04-22 09:11 | 43.44248 | 20.93454 | 36091 ft | 416 kts | 238° |
| 2026-04-22 09:11 | 43.40682 | 20.87207 | 36080 ft | 417 kts | 235° |
| 2026-04-22 09:12 | 43.36965 | 20.81136 | 36073 ft | 417 kts | 235° |
| 2026-04-22 09:12 | 43.33219 | 20.75037 | 36074 ft | 416 kts | 236° |
| 2026-04-22 09:13 | 43.29501 | 20.68993 | 36079 ft | 416 kts | 236° |
| 2026-04-22 09:13 | 43.25775 | 20.62949 | 36090 ft | 415 kts | 236° |
| 2026-04-22 09:14 | 43.22079 | 20.56966 | 36096 ft | 414 kts | 236° |
| 2026-04-22 09:14 | 43.18362 | 20.50963 | 36100 ft | 414 kts | 236° |
| 2026-04-22 09:15 | 43.14629 | 20.44951 | 36104 ft | 413 kts | 236° |
| 2026-04-22 09:15 | 43.10939 | 20.39017 | 36095 ft | 412 kts | 236° |
| 2026-04-22 09:16 | 43.07214 | 20.33041 | 36082 ft | 412 kts | 236° |
| 2026-04-22 09:16 | 43.03504 | 20.27095 | 36083 ft | 412 kts | 236° |
| 2026-04-22 09:17 | 42.99799 | 20.21175 | 36070 ft | 412 kts | 236° |
| 2026-04-22 09:17 | 42.96084 | 20.15247 | 36060 ft | 413 kts | 236° |
| 2026-04-22 09:18 | 42.92358 | 20.09318 | 36054 ft | 411 kts | 236° |
| 2026-04-22 09:18 | 42.88635 | 20.03406 | 36045 ft | 411 kts | 236° |
| 2026-04-22 09:19 | 42.84918 | 19.97508 | 36052 ft | 409 kts | 236° |
| 2026-04-22 09:19 | 42.81217 | 19.91657 | 36041 ft | 408 kts | 236° |
| 2026-04-22 09:20 | 42.77520 | 19.85821 | 36031 ft | 409 kts | 236° |
| 2026-04-22 09:20 | 42.73822 | 19.79989 | 36041 ft | 408 kts | 236° |
| 2026-04-22 09:21 | 42.70132 | 19.74187 | 36047 ft | 407 kts | 236° |
| 2026-04-22 09:21 | 42.66447 | 19.68404 | 36040 ft | 406 kts | 237° |
| 2026-04-22 09:22 | 42.62740 | 19.62600 | 36027 ft | 405 kts | 237° |
| 2026-04-22 09:22 | 42.59053 | 19.56833 | 36027 ft | 405 kts | 237° |
| 2026-04-22 09:23 | 42.55353 | 19.51061 | 36042 ft | 405 kts | 237° |
| 2026-04-22 09:23 | 42.51676 | 19.45333 | 36034 ft | 402 kts | 237° |
| 2026-04-22 09:24 | 42.48008 | 19.39636 | 36033 ft | 404 kts | 237° |
| 2026-04-22 09:24 | 42.44312 | 19.33902 | 36045 ft | 404 kts | 236° |
| 2026-04-22 09:25 | 42.40636 | 19.28213 | 36073 ft | 403 kts | 236° |
| 2026-04-22 09:25 | 42.36731 | 19.22744 | 36075 ft | 408 kts | 232° |
| 2026-04-22 09:26 | 42.32637 | 19.17481 | 36066 ft | 406 kts | 232° |
| 2026-04-22 09:26 | 42.28556 | 19.12243 | 36034 ft | 405 kts | 232° |
| 2026-04-22 09:27 | 42.24461 | 19.07003 | 36061 ft | 407 kts | 232° |
| 2026-04-22 09:27 | 42.20367 | 19.01773 | 36052 ft | 406 kts | 232° |
| 2026-04-22 09:28 | 42.16276 | 18.96561 | 36063 ft | 405 kts | 232° |
| 2026-04-22 09:28 | 42.12195 | 18.91371 | 36037 ft | 405 kts | 232° |
| 2026-04-22 09:29 | 42.08105 | 18.86174 | 36040 ft | 404 kts | 232° |
| 2026-04-22 09:29 | 42.04026 | 18.81005 | 36056 ft | 405 kts | 232° |
| 2026-04-22 09:30 | 41.99917 | 18.75811 | 36023 ft | 405 kts | 232° |
| 2026-04-22 09:30 | 41.95829 | 18.70651 | 36025 ft | 404 kts | 232° |
| 2026-04-22 09:31 | 41.91753 | 18.65514 | 35872 ft | 405 kts | 232° |
| 2026-04-22 09:31 | 41.87631 | 18.60324 | 35979 ft | 407 kts | 232° |
| 2026-04-22 09:32 | 41.83525 | 18.55112 | 35963 ft | 408 kts | 233° |
| 2026-04-22 09:32 | 41.81484 | 18.52499 | 35811 ft | 406 kts | 233° |
| 2026-04-22 09:32 | 41.79446 | 18.49894 | 35638 ft | 403 kts | 233° |
| 2026-04-22 09:32 | 41.77434 | 18.47330 | 35488 ft | 401 kts | 233° |
| 2026-04-22 09:33 | 41.75436 | 18.44781 | 35328 ft | 400 kts | 233° |
| 2026-04-22 09:33 | 41.73414 | 18.42204 | 35135 ft | 398 kts | 233° |
| 2026-04-22 09:33 | 41.71423 | 18.39670 | 34927 ft | 396 kts | 233° |
| 2026-04-22 09:33 | 41.69429 | 18.37135 | 34708 ft | 395 kts | 234° |
| 2026-04-22 09:34 | 41.67435 | 18.34601 | 34471 ft | 396 kts | 233° |
| 2026-04-22 09:34 | 41.65434 | 18.32056 | 34223 ft | 397 kts | 233° |
| 2026-04-22 09:34 | 41.63446 | 18.29531 | 33975 ft | 397 kts | 233° |
| 2026-04-22 09:35 | 41.59439 | 18.24457 | 33475 ft | 398 kts | 233° |
| 2026-04-22 09:35 | 41.57422 | 18.21909 | 33223 ft | 400 kts | 233° |
| 2026-04-22 09:35 | 41.55402 | 18.19356 | 32969 ft | 400 kts | 233° |
| 2026-04-22 09:35 | 41.53403 | 18.16834 | 32696 ft | 402 kts | 233° |
| 2026-04-22 09:36 | 41.51375 | 18.14249 | 32257 ft | 402 kts | 234° |
| 2026-04-22 09:36 | 41.49454 | 18.11581 | 31698 ft | 399 kts | 237° |
| 2026-04-22 09:36 | 41.47648 | 18.08836 | 31164 ft | 394 kts | 238° |
| 2026-04-22 09:36 | 41.45851 | 18.06085 | 30758 ft | 391 kts | 238° |
| 2026-04-22 09:37 | 41.44069 | 18.03354 | 30293 ft | 388 kts | 238° |
| 2026-04-22 09:37 | 41.42324 | 18.00681 | 29825 ft | 385 kts | 238° |
| 2026-04-22 09:37 | 41.40568 | 17.97994 | 29344 ft | 382 kts | 238° |
| 2026-04-22 09:37 | 41.38833 | 17.95335 | 28859 ft | 379 kts | 238° |
| 2026-04-22 09:38 | 41.37131 | 17.92733 | 28387 ft | 376 kts | 238° |
| 2026-04-22 09:38 | 41.35417 | 17.90117 | 27891 ft | 373 kts | 238° |
| 2026-04-22 09:38 | 41.33715 | 17.87518 | 27398 ft | 370 kts | 238° |
| 2026-04-22 09:38 | 41.32047 | 17.84975 | 26907 ft | 367 kts | 238° |
| 2026-04-22 09:39 | 41.30370 | 17.82416 | 26409 ft | 364 kts | 238° |
| 2026-04-22 09:39 | 41.28723 | 17.79911 | 25926 ft | 361 kts | 238° |
| 2026-04-22 09:39 | 41.27093 | 17.77432 | 25452 ft | 357 kts | 238° |
| 2026-04-22 09:39 | 41.25460 | 17.74952 | 24962 ft | 355 kts | 238° |
| 2026-04-22 09:40 | 41.23856 | 17.72514 | 24465 ft | 352 kts | 238° |
| 2026-04-22 09:40 | 41.22240 | 17.70057 | 23965 ft | 348 kts | 239° |
| 2026-04-22 09:40 | 41.20897 | 17.67512 | 23480 ft | 336 kts | 249° |
| 2026-04-22 09:40 | 41.19943 | 17.64738 | 22997 ft | 326 kts | 257° |
| 2026-04-22 09:41 | 41.19352 | 17.61876 | 22548 ft | 319 kts | 263° |
| 2026-04-22 09:41 | 41.18879 | 17.59037 | 22141 ft | 315 kts | 264° |
| 2026-04-22 09:41 | 41.18420 | 17.56219 | 21723 ft | 312 kts | 264° |
| 2026-04-22 09:41 | 41.17968 | 17.53448 | 21287 ft | 310 kts | 263° |
| 2026-04-22 09:42 | 41.17515 | 17.50662 | 20838 ft | 308 kts | 263° |
| 2026-04-22 09:42 | 41.17061 | 17.47886 | 20388 ft | 307 kts | 263° |
| 2026-04-22 09:42 | 41.16612 | 17.45146 | 19932 ft | 306 kts | 263° |
| 2026-04-22 09:42 | 41.16164 | 17.42404 | 19468 ft | 306 kts | 263° |
| 2026-04-22 09:43 | 41.15713 | 17.39656 | 19001 ft | 306 kts | 263° |
| 2026-04-22 09:43 | 41.15261 | 17.36898 | 18542 ft | 306 kts | 263° |
| 2026-04-22 09:43 | 41.14810 | 17.34167 | 18085 ft | 306 kts | 263° |
| 2026-04-22 09:43 | 41.14355 | 17.31408 | 17617 ft | 306 kts | 262° |
| 2026-04-22 09:44 | 41.13905 | 17.28673 | 17184 ft | 306 kts | 262° |
| 2026-04-22 09:44 | 41.13446 | 17.25897 | 16722 ft | 307 kts | 262° |
| 2026-04-22 09:44 | 41.12997 | 17.23174 | 16261 ft | 307 kts | 262° |
| 2026-04-22 09:44 | 41.12537 | 17.20410 | 15797 ft | 307 kts | 262° |
| 2026-04-22 09:45 | 41.12077 | 17.17642 | 15340 ft | 307 kts | 261° |
| 2026-04-22 09:45 | 41.11619 | 17.14892 | 14879 ft | 307 kts | 261° |
| 2026-04-22 09:45 | 41.11159 | 17.12132 | 14432 ft | 307 kts | 261° |
| 2026-04-22 09:45 | 41.10701 | 17.09400 | 13982 ft | 307 kts | 261° |
| 2026-04-22 09:46 | 41.10238 | 17.06635 | 13524 ft | 307 kts | 261° |
| 2026-04-22 09:46 | 41.09777 | 17.03884 | 13064 ft | 307 kts | 260° |
| 2026-04-22 09:46 | 41.09316 | 17.01139 | 12611 ft | 307 kts | 260° |
| 2026-04-22 09:46 | 41.08854 | 16.98386 | 12148 ft | 307 kts | 260° |
| 2026-04-22 09:47 | 41.08391 | 16.95640 | 11679 ft | 308 kts | 259° |
| 2026-04-22 09:47 | 41.07857 | 16.92874 | 11230 ft | 308 kts | 255° |
| 2026-04-22 09:47 | 41.07180 | 16.90234 | 11043 ft | 300 kts | 252° |
| 2026-04-22 09:47 | 41.06450 | 16.87637 | 11043 ft | 300 kts | 252° |
| 2026-04-22 09:48 | 41.05737 | 16.85127 | 11028 ft | 286 kts | 252° |
| 2026-04-22 09:48 | 41.05053 | 16.82721 | 11030 ft | 274 kts | 252° |
| 2026-04-22 09:48 | 41.04389 | 16.80372 | 11035 ft | 273 kts | 252° |
| 2026-04-22 09:48 | 41.03717 | 16.77996 | 11035 ft | 274 kts | 252° |
| 2026-04-22 09:49 | 41.03064 | 16.75693 | 11028 ft | 262 kts | 252° |
| 2026-04-22 09:49 | 41.02441 | 16.73501 | 11029 ft | 250 kts | 252° |
| 2026-04-22 09:49 | 41.01834 | 16.71357 | 11037 ft | 250 kts | 252° |
| 2026-04-22 09:49 | 41.01218 | 16.69186 | 11036 ft | 249 kts | 252° |
| 2026-04-22 09:50 | 41.00612 | 16.67055 | 11038 ft | 248 kts | 252° |
| 2026-04-22 09:50 | 41.00006 | 16.64924 | 11056 ft | 249 kts | 252° |
| 2026-04-22 09:50 | 40.99398 | 16.62792 | 11047 ft | 249 kts | 252° |
| 2026-04-22 09:50 | 40.98786 | 16.60651 | 11042 ft | 249 kts | 252° |
| 2026-04-22 09:51 | 40.98173 | 16.58508 | 11045 ft | 248 kts | 252° |
| 2026-04-22 09:51 | 40.97563 | 16.56372 | 11036 ft | 244 kts | 252° |
| 2026-04-22 09:51 | 40.96979 | 16.54337 | 11034 ft | 236 kts | 252° |
| 2026-04-22 09:51 | 40.96395 | 16.52302 | 11036 ft | 235 kts | 253° |
| 2026-04-22 09:52 | 40.95820 | 16.50293 | 11016 ft | 234 kts | 253° |
| 2026-04-22 09:52 | 40.95249 | 16.48293 | 10859 ft | 230 kts | 253° |
| 2026-04-22 09:52 | 40.94687 | 16.46319 | 10511 ft | 232 kts | 252° |
| 2026-04-22 09:52 | 40.94119 | 16.44330 | 10157 ft | 233 kts | 252° |
| 2026-04-22 09:53 | 40.93547 | 16.42331 | 9835 ft | 233 kts | 252° |
| 2026-04-22 09:53 | 40.92970 | 16.40320 | 9507 ft | 233 kts | 252° |
| 2026-04-22 09:53 | 40.92398 | 16.38331 | 9180 ft | 232 kts | 252° |
| 2026-04-22 09:53 | 40.91831 | 16.36366 | 9020 ft | 231 kts | 252° |
| 2026-04-22 09:54 | 40.91255 | 16.34369 | 9022 ft | 232 kts | 251° |
| 2026-04-22 09:54 | 40.90674 | 16.32355 | 9031 ft | 233 kts | 251° |
| 2026-04-22 09:54 | 40.90266 | 16.30289 | 8715 ft | 237 kts | 272° |
| 2026-04-22 09:54 | 40.90789 | 16.28274 | 8218 ft | 242 kts | 307° |
| 2026-04-22 09:55 | 40.92105 | 16.26881 | 7717 ft | 252 kts | 334° |
| 2026-04-22 09:55 | 40.93863 | 16.26423 | 7179 ft | 262 kts | 357° |
| 2026-04-22 09:55 | 40.95667 | 16.26385 | 6968 ft | 255 kts | 356° |
| 2026-04-22 09:55 | 40.97388 | 16.26311 | 6909 ft | 244 kts | 356° |
| 2026-04-22 09:56 | 40.99033 | 16.26562 | 6780 ft | 237 kts | 23° |
| 2026-04-22 09:56 | 41.00242 | 16.27988 | 6549 ft | 238 kts | 60° |
| 2026-04-22 09:56 | 41.00806 | 16.30031 | 6272 ft | 238 kts | 70° |
| 2026-04-22 09:56 | 41.01333 | 16.32094 | 5975 ft | 237 kts | 68° |
| 2026-04-22 09:57 | 41.01900 | 16.34160 | 5688 ft | 237 kts | 68° |
| 2026-04-22 09:57 | 41.02475 | 16.36190 | 5393 ft | 237 kts | 67° |
| 2026-04-22 09:57 | 41.03054 | 16.38221 | 5104 ft | 237 kts | 66° |
| 2026-04-22 09:57 | 41.03636 | 16.40260 | 4811 ft | 237 kts | 66° |
| 2026-04-22 09:58 | 41.04218 | 16.42297 | 4526 ft | 237 kts | 66° |
| 2026-04-22 09:58 | 41.04800 | 16.44332 | 4229 ft | 236 kts | 66° |
| 2026-04-22 09:58 | 41.05376 | 16.46349 | 3930 ft | 232 kts | 66° |
| 2026-04-22 09:58 | 41.05942 | 16.48330 | 3670 ft | 227 kts | 66° |
| 2026-04-22 09:59 | 41.06494 | 16.50250 | 3407 ft | 222 kts | 66° |
| 2026-04-22 09:59 | 41.07039 | 16.52150 | 3141 ft | 217 kts | 65° |
| 2026-04-22 09:59 | 41.07580 | 16.53937 | 2986 ft | 204 kts | 64° |
| 2026-04-22 09:59 | 41.08083 | 16.55625 | 2958 ft | 187 kts | 64° |
| 2026-04-22 10:00 | 41.08527 | 16.57169 | 2836 ft | 176 kts | 64° |
| 2026-04-22 10:00 | 41.08951 | 16.58667 | 2594 ft | 172 kts | 65° |
| 2026-04-22 10:00 | 41.09360 | 16.60125 | 2353 ft | 163 kts | 65° |
| 2026-04-22 10:00 | 41.09740 | 16.61486 | 2127 ft | 154 kts | 64° |
| 2026-04-22 10:01 | 41.10110 | 16.62805 | 1942 ft | 151 kts | 64° |
| 2026-04-22 10:01 | 41.10477 | 16.64106 | 1780 ft | 151 kts | 64° |
| 2026-04-22 10:01 | 41.10844 | 16.65411 | 1589 ft | 151 kts | 65° |
| 2026-04-22 10:01 | 41.11208 | 16.66705 | 1378 ft | 148 kts | 65° |
| 2026-04-22 10:02 | 41.11560 | 16.67960 | 1165 ft | 145 kts | 65° |
| 2026-04-22 10:02 | 41.11901 | 16.69213 | 980 ft | 145 kts | 66° |
| 2026-04-22 10:02 | 41.12243 | 16.70461 | 820 ft | 140 kts | 64° |
| 2026-04-22 10:02 | 41.12603 | 16.71668 | 612 ft | 145 kts | 67° |
| 2026-04-22 10:03 | 41.12956 | 16.72926 | 433 ft | 146 kts | 67° |
| 2026-04-22 10:03 | 41.13314 | 16.74163 | 242 ft | 140 kts | 67° |
| 2026-04-22 10:03 | 41.13631 | 16.75283 | 161 ft | 111 kts | 70° |
| 2026-04-22 10:03 | 41.13842 | 16.76025 | 143 ft | 61 kts | 69° |
| 2026-04-22 10:04 | 41.13953 | 16.76419 | 134 ft | 38 kts | 70° |
| 2026-04-22 10:04 | 41.13998 | 16.76624 | 131 ft | 15 kts | 103° |
| 2026-04-22 10:04 | 41.13957 | 16.76714 | 131 ft | 7 kts | 160° |
| 2026-04-22 10:04 | 41.13911 | 16.76691 | 132 ft | 7 kts | 216° |
| 2026-04-22 10:05 | 41.13872 | 16.76654 | 133 ft | 7 kts | 214° |
| 2026-04-22 10:05 | 41.13831 | 16.76614 | 135 ft | 6 kts | 224° |
| 2026-04-22 10:05 | 41.13799 | 16.76554 | 137 ft | 8 kts | 214° |
| 2026-04-22 10:05 | 41.13738 | 16.76563 | 138 ft | 9 kts | 181° |
| 2026-04-22 10:06 | 41.13678 | 16.76534 | 140 ft | 8 kts | 207° |
| 2026-04-22 10:06 | 41.13643 | 16.76480 | 141 ft | 7 kts | 246° |
| 2026-04-22 10:06 | 41.13626 | 16.76434 | 143 ft | 3 kts | 210° |
| 2026-04-22 10:06 | 41.13600 | 16.76435 | 143 ft | 4 kts | 162° |
| 2026-04-22 10:07 | 41.13570 | 16.76450 | 144 ft | 5 kts | 160° |
| 2026-04-22 10:07 | 41.13562 | 16.76454 | 144 ft | 0 kts | 160° |